Kezdőlap
METAR-TAF:

METAR-TAF

Repülőterek :

Atatürk nemzetközi repülőtér

Isztambul Atatürk, Törökország

földrajzi szélesség: 40-58N, földrajzi hosszúság: 028-49E, magasság: 48 m

Jelenlegi meteorológiai megfigyelések

A jelentés 21 perccel ezelõtt készült, 13:20 UTC
Délnyugati szél 6 kt, dél-délnyugati és nyugat-északnyugati között változik
Hőmérséklet 9°C
Páratartalom 57%
Légköri nyomás 1026 hPa
Látótávolság 10 km, vagy több
felhőtlen 1500 m magasságban, és nincs gomolyfelhõ

METAR: LTBA 171320Z 23006KT 200V300 CAVOK 09/01 Q1026 NOSIG

Idő: 16:41 (13:41 UTC)

Előrejelzés

A jelentés 3 órával és 1 perccel ezelõtt készült, 10:40 UTC
Az előrejelzés 17-én 12 óra UTC és 18-én 18 óra UTC között érvényes
Kelet-északkeleti szél 7 kt
Látótávolság 10 km, vagy több
felhőtlen 1500 m magasságban, és nincs gomolyfelhõ

TAF: LTBA 171040Z 1712/1818 07007KT CAVOK

Meteorológiai megfigyelések és előrejelzések több, mint 4000 repülőtéren (METAR és TAF jelentéseket).

A térképen piros és sárga pontok jelzik az elérhető meteorológiai állomásokat.

Mozgassa az egeret a pont fölött, hogy megjelenjen az állomás neve.

Azután kattintson az időjárási megfigyelések és előrejelzések megtekintéséhez.

A térkép megváltoztatása: kattintson a fekete keresztel jelölt zöld gombra ráközelítéshez, a vonallal jelölt zöld gombra távolításhoz, vagy a zöld nyilakra a szomszédos térképek eléréséhez.


METAR-TAF: